TimeEDT,TemperatureF,Dew PointF,Humidity,Sea Level PressureIn,VisibilityMPH,Wind Direction,Wind SpeedMPH,Gust SpeedMPH,PrecipitationIn,Events,Conditions,WindDirDegrees,DateUTC
12:15 AM,71.6,64.4,78,29.82,10.0,West,8.1,-,N/A,,Mostly Cloudy,280,2013-06-12 04:15:00
12:35 AM,71.6,64.4,78,29.83,10.0,West,10.4,-,N/A,,Partly Cloudy,280,2013-06-12 04:35:00
12:55 AM,71.6,64.4,78,29.83,10.0,West,9.2,-,N/A,,Clear,270,2013-06-12 04:55:00
1:15 AM,71.6,64.4,78,29.83,10.0,West,8.1,-,N/A,,Clear,280,2013-06-12 05:15:00
1:35 AM,71.6,64.4,78,29.82,10.0,West,8.1,-,N/A,,Clear,280,2013-06-12 05:35:00
1:55 AM,71.6,64.4,78,29.82,10.0,West,8.1,-,N/A,,Clear,270,2013-06-12 05:55:00
2:15 AM,71.6,64.4,78,29.82,10.0,West,9.2,-,N/A,,Clear,260,2013-06-12 06:15:00
2:35 AM,71.6,64.4,78,29.82,10.0,West,6.9,-,N/A,,Clear,260,2013-06-12 06:35:00
2:55 AM,71.6,64.4,78,29.82,10.0,WSW,6.9,-,N/A,,Clear,250,2013-06-12 06:55:00
3:15 AM,71.6,64.4,78,29.81,10.0,WSW,6.9,-,N/A,,Clear,250,2013-06-12 07:15:00
3:35 AM,71.6,64.4,78,29.82,10.0,WSW,9.2,-,N/A,,Clear,250,2013-06-12 07:35:00
3:55 AM,71.6,62.6,73,29.82,10.0,West,9.2,-,N/A,,Clear,260,2013-06-12 07:55:00
4:15 AM,71.6,64.4,78,29.81,10.0,WSW,8.1,-,N/A,,Clear,250,2013-06-12 08:15:00
4:35 AM,71.6,64.4,78,29.81,10.0,West,8.1,-,N/A,,Clear,260,2013-06-12 08:35:00
4:55 AM,71.6,64.4,78,29.82,10.0,West,9.2,-,N/A,,Clear,260,2013-06-12 08:55:00
5:15 AM,71.6,64.4,78,29.83,10.0,WSW,10.4,-,N/A,,Clear,250,2013-06-12 09:15:00
5:35 AM,71.6,64.4,78,29.83,10.0,WSW,8.1,-,N/A,,Clear,250,2013-06-12 09:35:00
5:55 AM,69.8,64.4,83,29.83,10.0,WSW,6.9,-,N/A,,Clear,250,2013-06-12 09:55:00
6:15 AM,69.8,64.4,83,29.84,10.0,WSW,6.9,-,N/A,,Clear,250,2013-06-12 10:15:00
6:35 AM,71.6,64.4,78,29.84,10.0,WSW,9.2,-,N/A,,Clear,250,2013-06-12 10:35:00
6:55 AM,71.6,64.4,78,29.84,10.0,WSW,8.1,-,N/A,,Clear,250,2013-06-12 10:55:00
7:15 AM,71.6,64.4,78,29.85,10.0,West,8.1,-,N/A,,Clear,270,2013-06-12 11:15:00
7:35 AM,73.4,64.4,73,29.85,10.0,West,9.2,-,N/A,,Clear,260,2013-06-12 11:35:00
7:55 AM,73.4,64.4,73,29.85,10.0,West,10.4,-,N/A,,Clear,270,2013-06-12 11:55:00
8:15 AM,73.4,64.4,73,29.85,10.0,West,10.4,17.3,N/A,,Clear,270,2013-06-12 12:15:00
8:35 AM,75.2,66.2,73,29.85,10.0,West,10.4,-,N/A,,Clear,260,2013-06-12 12:35:00
8:55 AM,75.2,64.4,69,29.85,10.0,West,10.4,-,N/A,,Clear,260,2013-06-12 12:55:00
9:15 AM,75.2,64.4,69,29.85,10.0,West,8.1,-,N/A,,Partly Cloudy,270,2013-06-12 13:15:00
9:35 AM,75.2,66.2,73,29.85,10.0,West,10.4,18.4,N/A,,Clear,260,2013-06-12 13:35:00
9:55 AM,77.0,66.2,69,29.85,10.0,West,9.2,-,N/A,,Clear,280,2013-06-12 13:55:00
10:15 AM,77.0,66.2,69,29.85,10.0,West,10.4,-,N/A,,Clear,280,2013-06-12 14:15:00
10:35 AM,75.2,66.2,73,29.85,10.0,WNW,11.5,-,N/A,,Clear,290,2013-06-12 14:35:00
10:55 AM,78.8,66.2,65,29.84,10.0,West,11.5,-,N/A,,Clear,280,2013-06-12 14:55:00
11:15 AM,78.8,66.2,65,29.84,10.0,West,10.4,-,N/A,,Clear,270,2013-06-12 15:15:00
11:35 AM,78.8,66.2,65,29.84,10.0,WNW,8.1,-,N/A,,Clear,290,2013-06-12 15:35:00
11:55 AM,78.8,66.2,65,29.84,10.0,West,8.1,-,N/A,,Clear,280,2013-06-12 15:55:00
12:15 PM,78.8,66.2,65,29.84,10.0,NW,6.9,-,N/A,,Clear,310,2013-06-12 16:15:00
12:35 PM,78.8,66.2,65,29.84,10.0,WNW,8.1,-,N/A,,Clear,300,2013-06-12 16:35:00
12:55 PM,78.8,66.2,65,29.85,10.0,NW,9.2,-,N/A,,Clear,310,2013-06-12 16:55:00
1:15 PM,77.0,66.2,69,29.84,10.0,NW,6.9,-,N/A,,Partly Cloudy,310,2013-06-12 17:15:00
1:35 PM,78.8,66.2,65,29.84,10.0,NW,4.6,-,N/A,,Partly Cloudy,320,2013-06-12 17:35:00
1:55 PM,78.8,66.2,65,29.83,10.0,WNW,8.1,-,N/A,,Partly Cloudy,290,2013-06-12 17:55:00
2:15 PM,78.8,66.2,65,29.84,10.0,WNW,6.9,-,N/A,,Partly Cloudy,300,2013-06-12 18:15:00
2:35 PM,80.6,66.2,61,29.84,10.0,NW,6.9,-,N/A,,Clear,310,2013-06-12 18:35:00
2:55 PM,80.6,66.2,61,29.83,10.0,WNW,6.9,-,N/A,,Clear,300,2013-06-12 18:55:00
3:15 PM,80.6,66.2,61,29.83,10.0,NW,9.2,-,N/A,,Clear,310,2013-06-12 19:15:00
3:35 PM,80.6,66.2,61,29.82,10.0,WNW,9.2,-,N/A,,Clear,290,2013-06-12 19:35:00
3:55 PM,80.6,66.2,61,29.82,10.0,NW,10.4,-,N/A,,Clear,310,2013-06-12 19:55:00
4:15 PM,80.6,66.2,61,29.82,10.0,NW,6.9,-,N/A,,Clear,320,2013-06-12 20:15:00
4:35 PM,80.6,66.2,61,29.82,10.0,NW,5.8,-,N/A,,Clear,310,2013-06-12 20:35:00
4:55 PM,80.6,64.4,58,29.82,10.0,NW,6.9,-,N/A,,Clear,320,2013-06-12 20:55:00
5:15 PM,80.6,64.4,58,29.82,10.0,NW,8.1,-,N/A,,Clear,310,2013-06-12 21:15:00
5:35 PM,80.6,66.2,61,29.82,10.0,NW,5.8,-,N/A,,Clear,320,2013-06-12 21:35:00
5:55 PM,80.6,64.4,58,29.82,10.0,NNW,6.9,-,N/A,,Clear,330,2013-06-12 21:55:00
6:15 PM,78.8,66.2,65,29.82,10.0,NNW,6.9,-,N/A,,Clear,330,2013-06-12 22:15:00
6:35 PM,78.8,64.4,61,29.82,10.0,NNW,5.8,-,N/A,,Clear,330,2013-06-12 22:35:00
6:55 PM,78.8,64.4,61,29.82,10.0,NNW,5.8,-,N/A,,Clear,340,2013-06-12 22:55:00
7:15 PM,78.8,64.4,61,29.83,10.0,NNW,3.5,-,N/A,,Clear,330,2013-06-12 23:15:00
7:35 PM,78.8,64.4,61,29.83,10.0,NNW,4.6,-,N/A,,Clear,330,2013-06-12 23:35:00
7:55 PM,77.0,64.4,65,29.83,10.0,NNW,3.5,-,N/A,,Clear,330,2013-06-12 23:55:00
8:15 PM,77.0,64.4,65,29.83,10.0,Calm,Calm,-,N/A,,Clear,0,2013-06-13 00:15:00
8:35 PM,75.2,64.4,69,29.85,10.0,NNW,3.5,-,N/A,,Clear,340,2013-06-13 00:35:00
8:55 PM,75.2,64.4,69,29.86,10.0,North,3.5,-,N/A,,Clear,350,2013-06-13 00:55:00
9:15 PM,73.4,64.4,73,29.85,10.0,NE,3.5,-,N/A,,Clear,40,2013-06-13 01:15:00
9:35 PM,73.4,64.4,73,29.85,10.0,Calm,Calm,-,N/A,,Scattered Clouds,0,2013-06-13 01:35:00
9:55 PM,73.4,64.4,73,29.86,10.0,ENE,3.5,-,N/A,,Scattered Clouds,60,2013-06-13 01:55:00
10:15 PM,75.2,64.4,69,29.85,10.0,SSE,4.6,-,N/A,,Mostly Cloudy,150,2013-06-13 02:15:00
10:35 PM,71.6,62.6,73,29.87,10.0,East,4.6,-,N/A,,Scattered Clouds,90,2013-06-13 02:35:00
10:55 PM,71.6,62.6,73,29.86,10.0,ESE,8.1,-,N/A,,Scattered Clouds,110,2013-06-13 02:55:00
11:15 PM,71.6,62.6,73,29.85,10.0,ESE,8.1,-,N/A,,Scattered Clouds,120,2013-06-13 03:15:00
11:35 PM,71.6,60.8,69,29.85,10.0,SE,11.5,-,N/A,,Mostly Cloudy,130,2013-06-13 03:35:00
11:55 PM,71.6,59.0,64,29.85,10.0,ESE,9.2,-,N/A,,Mostly Cloudy,110,2013-06-13 03:55:00